createdAt,value
2018-02-12T00:00:52.148Z,94379.20
2018-02-12T00:03:18.142Z,94378.87
2018-02-12T00:05:44.160Z,94385.47
2018-02-12T00:08:10.234Z,94386.23
2018-02-12T00:10:36.254Z,94387.02
2018-02-12T00:13:02.280Z,94384.83
2018-02-12T00:15:28.374Z,94387.52
2018-02-12T00:17:54.403Z,94385.77
2018-02-12T00:20:20.488Z,94390.45
2018-02-12T00:22:46.550Z,94393.98
2018-02-12T00:25:12.628Z,94389.34
2018-02-12T00:27:38.741Z,94387.27
2018-02-12T00:30:04.757Z,94388.70
2018-02-12T00:32:30.757Z,94387.17
2018-02-12T00:34:56.809Z,94388.65
2018-02-12T00:37:22.853Z,94392.59
2018-02-12T00:39:48.863Z,94388.77
2018-02-12T00:42:14.870Z,94389.10
2018-02-12T00:44:40.875Z,94394.17
2018-02-12T00:47:06.918Z,94393.77
2018-02-12T00:49:32.915Z,94389.41
2018-02-12T00:51:58.960Z,94390.69
2018-02-12T00:54:24.979Z,94394.42
2018-02-12T00:56:51.044Z,94392.59
2018-02-12T00:59:17.064Z,94399.86
2018-02-12T01:01:43.121Z,94396.41
2018-02-12T01:04:09.159Z,94394.57
2018-02-12T01:06:35.189Z,94398.51
2018-02-12T01:09:01.225Z,94397.47
2018-02-12T01:11:27.239Z,94396.95
2018-02-12T01:13:53.288Z,94396.71
2018-02-12T01:16:19.332Z,94396.25
2018-02-12T01:18:45.419Z,94395.52
2018-02-12T01:21:11.448Z,94389.34
2018-02-12T01:23:37.461Z,94393.66
2018-02-12T01:26:03.506Z,94393.97
2018-02-12T01:28:29.564Z,94397.35
2018-02-12T01:30:55.584Z,94397.57
2018-02-12T01:33:21.632Z,94396.25
2018-02-12T01:35:47.650Z,94392.07
2018-02-12T01:38:13.691Z,94394.88
2018-02-12T01:40:39.781Z,94401.45
2018-02-12T01:43:05.799Z,94396.16
2018-02-12T01:45:31.799Z,94400.11
2018-02-12T01:47:57.807Z,94396.77
2018-02-12T01:50:23.834Z,94398.61
2018-02-12T01:52:49.904Z,94405.97
2018-02-12T01:55:15.958Z,94407.06
2018-02-12T01:57:41.988Z,94406.61
2018-02-12T02:00:08.065Z,94409.27
2018-02-12T02:02:34.094Z,94406.37
2018-02-12T02:05:00.195Z,94401.88
2018-02-12T02:07:26.291Z,94405.76
2018-02-12T02:09:52.360Z,94408.66
2018-02-12T02:12:18.398Z,94408.11
2018-02-12T02:14:44.450Z,94413.16
2018-02-12T02:17:10.475Z,94408.05
2018-02-12T02:19:36.538Z,94406.83
2018-02-12T02:22:02.601Z,94407.47
2018-02-12T02:24:28.608Z,94416.39
2018-02-12T02:26:54.651Z,94415.59
2018-02-12T02:29:20.667Z,94415.38
2018-02-12T02:31:46.694Z,94415.13
2018-02-12T02:34:12.716Z,94414.58
2018-02-12T02:36:38.722Z,94417.61
2018-02-12T02:39:04.723Z,94417.52
2018-02-12T02:41:30.739Z,94421.95
2018-02-12T02:43:56.796Z,94420.05
2018-02-12T02:46:22.805Z,94416.73
2018-02-12T02:48:48.826Z,94418.22
2018-02-12T02:51:14.859Z,94416.11
2018-02-12T02:53:40.938Z,94418.41
2018-02-12T02:56:06.960Z,94424.00
2018-02-12T02:58:33.051Z,94426.75
2018-02-12T03:00:59.115Z,94420.60
2018-02-12T03:03:25.141Z,94422.73
2018-02-12T03:05:51.184Z,94428.48
2018-02-12T03:08:17.218Z,94427.57
2018-02-12T03:10:43.238Z,94428.21
2018-02-12T03:13:09.323Z,94428.52
2018-02-12T03:15:35.371Z,94423.23
2018-02-12T03:18:01.389Z,94427.54
2018-02-12T03:20:27.408Z,94423.05
2018-02-12T03:22:53.432Z,94428.09
2018-02-12T03:25:19.467Z,94428.88
2018-02-12T03:27:45.505Z,94427.57
2018-02-12T03:30:11.535Z,94426.38
2018-02-12T03:32:37.607Z,94424.48
2018-02-12T03:35:03.625Z,94429.23
2018-02-12T03:37:29.663Z,94419.11
2018-02-12T03:39:55.682Z,94425.25
2018-02-12T03:42:21.716Z,94418.80
2018-02-12T03:44:47.789Z,94422.98
2018-02-12T03:47:13.881Z,94419.81
2018-02-12T03:49:39.916Z,94424.23
2018-02-12T03:52:05.923Z,94426.99
2018-02-12T03:54:31.968Z,94423.69
2018-02-12T03:56:57.990Z,94422.44
2018-02-12T03:59:24.025Z,94422.84
2018-02-12T04:01:50.034Z,94421.55
2018-02-12T04:04:16.073Z,94420.42
2018-02-12T04:06:42.076Z,94418.95
2018-02-12T04:09:08.085Z,94421.64
2018-02-12T04:11:34.142Z,94426.47
2018-02-12T04:14:00.169Z,94426.34
2018-02-12T04:16:26.173Z,94427.21
2018-02-12T04:18:52.165Z,94433.79
2018-02-12T04:21:18.173Z,94434.91
2018-02-12T04:23:44.186Z,94432.48
2018-02-12T04:26:10.191Z,94436.81
2018-02-12T04:28:36.196Z,94436.05
2018-02-12T04:31:02.222Z,94433.33
2018-02-12T04:33:28.254Z,94442.98
2018-02-12T04:35:54.259Z,94436.03
2018-02-12T04:38:20.322Z,94437.83
2018-02-12T04:40:46.324Z,94431.23
2018-02-12T04:43:12.337Z,94432.64
2018-02-12T04:45:38.415Z,94437.94
2018-02-12T04:48:04.482Z,94432.36
2018-02-12T04:50:30.494Z,94439.27
2018-02-12T04:52:56.529Z,94435.64
2018-02-12T04:55:22.594Z,94440.14
2018-02-12T04:57:48.635Z,94436.91
2018-02-12T05:00:14.677Z,94439.44
2018-02-12T05:02:40.727Z,94444.55
2018-02-12T05:05:06.797Z,94444.40
2018-02-12T05:07:32.798Z,94445.86
2018-02-12T05:09:58.810Z,94445.02
2018-02-12T05:12:24.901Z,94446.36
2018-02-12T05:14:51.040Z,94442.30
2018-02-12T05:17:17.063Z,94447.88
2018-02-12T05:19:43.139Z,94448.42
2018-02-12T05:22:09.280Z,94457.42
2018-02-12T05:24:35.348Z,94456.50
2018-02-12T05:27:01.350Z,94461.64
2018-02-12T05:29:27.439Z,94471.01
2018-02-12T05:31:53.444Z,94469.55
2018-02-12T05:34:19.451Z,94477.70
2018-02-12T05:36:45.524Z,94479.27
2018-02-12T05:39:11.547Z,94479.16
2018-02-12T05:41:37.617Z,94481.69
2018-02-12T05:44:03.666Z,94479.66
2018-02-12T05:46:29.685Z,94481.25
2018-02-12T05:48:55.701Z,94486.70
2018-02-12T05:51:21.731Z,94488.52
2018-02-12T05:53:47.822Z,94496.52
2018-02-12T05:56:13.862Z,94496.97
2018-02-12T05:58:39.876Z,94500.56
2018-02-12T06:01:05.879Z,94499.96
2018-02-12T06:03:31.926Z,94504.15
2018-02-12T06:05:57.933Z,94504.64
2018-02-12T06:08:23.974Z,94505.49
2018-02-12T06:10:50.019Z,94502.75
2018-02-12T06:13:16.078Z,94508.78
2018-02-12T06:15:42.084Z,94508.05
2018-02-12T06:18:08.189Z,94510.43
2018-02-12T06:20:34.160Z,94508.20
2018-02-12T06:23:00.183Z,94504.26
2018-02-12T06:25:26.197Z,94511.61
2018-02-12T06:27:52.260Z,94514.13
2018-02-12T06:30:18.280Z,94515.06
2018-02-12T06:32:44.282Z,94508.84
2018-02-12T06:35:10.342Z,94519.83
2018-02-12T06:37:36.348Z,94520.96
2018-02-12T06:40:02.366Z,94527.41
2018-02-12T06:42:28.421Z,94520.72
2018-02-12T06:44:54.483Z,94516.19
2018-02-12T06:47:20.488Z,94526.55
2018-02-12T06:49:46.507Z,94530.70
2018-02-12T06:52:12.577Z,94524.05
2018-02-12T06:54:38.631Z,94527.14
2018-02-12T06:57:04.686Z,94519.02
2018-02-12T06:59:30.742Z,94520.87
2018-02-12T07:01:56.741Z,94522.61
2018-02-12T07:04:22.753Z,94521.57
2018-02-12T07:06:48.795Z,94529.77
2018-02-12T07:09:14.879Z,94532.56
2018-02-12T07:11:40.921Z,94535.20
2018-02-12T07:14:06.927Z,94537.63
2018-02-12T07:16:32.953Z,94542.62
2018-02-12T07:18:58.961Z,94540.82
2018-02-12T07:21:24.978Z,94538.77
2018-02-12T07:23:51.017Z,94540.10
2018-02-12T07:26:17.027Z,94542.45
2018-02-12T07:28:43.052Z,94546.94
2018-02-12T07:31:09.060Z,94531.46
2018-02-12T07:33:35.122Z,94543.05
2018-02-12T07:36:01.140Z,94535.25
2018-02-12T07:38:27.196Z,94540.98
2018-02-12T07:40:53.264Z,94536.16
2018-02-12T07:43:20.248Z,94535.22
2018-02-12T07:45:46.332Z,94529.17
2018-02-12T07:48:12.435Z,94533.88
2018-02-12T07:50:46.423Z,94538.92
2018-02-12T07:53:12.456Z,94541.55
2018-02-12T07:55:39.540Z,94537.52
2018-02-12T07:58:05.554Z,94542.05
2018-02-12T08:00:31.609Z,94542.27
2018-02-12T08:02:57.643Z,94540.77
2018-02-12T08:05:23.771Z,94540.45
2018-02-12T08:07:49.810Z,94540.55
2018-02-12T08:10:15.859Z,94549.84
2018-02-12T08:12:41.940Z,94549.45
2018-02-12T08:15:07.979Z,94541.62
2018-02-12T08:17:34.038Z,94549.23
2018-02-12T08:20:00.065Z,94544.70
2018-02-12T08:22:26.408Z,94546.88
2018-02-12T08:24:52.465Z,94551.87
2018-02-12T08:27:18.812Z,94551.90
2018-02-12T08:29:44.952Z,94552.50
2018-02-12T08:32:18.550Z,94552.35
2018-02-12T08:34:53.794Z,94552.97
2018-02-12T08:37:19.847Z,94551.53
2018-02-12T08:39:46.013Z,94549.33
2018-02-12T08:42:12.214Z,94552.08
2018-02-12T08:44:38.293Z,94552.91
2018-02-12T08:47:04.337Z,94558.97
2018-02-12T08:49:30.396Z,94562.14
2018-02-12T08:51:56.511Z,94555.42
2018-02-12T08:54:22.581Z,94560.13
2018-02-12T08:56:48.624Z,94554.53
2018-02-12T08:59:14.756Z,94559.48
2018-02-12T09:01:40.792Z,94568.39
2018-02-12T09:04:06.886Z,94564.49
2018-02-12T09:06:32.969Z,94562.31
2018-02-12T09:08:59.129Z,94564.77
2018-02-12T09:11:25.228Z,94571.03
2018-02-12T09:13:51.304Z,94566.11
2018-02-12T09:16:17.369Z,94571.58
2018-02-12T09:18:43.403Z,94570.38
2018-02-12T09:21:09.502Z,94572.30
2018-02-12T09:23:37.348Z,94568.97
2018-02-12T09:26:05.356Z,94568.54
2018-02-12T09:28:31.353Z,94579.53
2018-02-12T09:30:57.422Z,94572.64
2018-02-12T09:33:23.482Z,94570.45
2018-02-12T09:35:49.494Z,94573.02
2018-02-12T09:38:15.647Z,94568.44
2018-02-12T09:40:41.979Z,94568.93
2018-02-12T09:43:10.118Z,94568.88
2018-02-12T09:45:36.155Z,94571.38
2018-02-12T09:48:02.160Z,94566.86
2018-02-12T09:50:28.199Z,94562.48
2018-02-12T09:52:54.184Z,94562.02
2018-02-12T09:55:20.212Z,94560.14
2018-02-12T09:57:46.234Z,94559.02
2018-02-12T10:00:12.248Z,94556.26
2018-02-12T10:02:39.187Z,94550.54
2018-02-12T10:05:05.192Z,94551.64
2018-02-12T10:07:31.240Z,94549.81
2018-02-12T10:09:57.255Z,94551.06
2018-02-12T10:12:23.523Z,94554.56
2018-02-12T10:14:49.623Z,94561.11
2018-02-12T10:17:15.694Z,94561.35
2018-02-12T10:19:41.742Z,94558.34
2018-02-12T10:22:07.990Z,94553.11
2018-02-12T10:24:34.163Z,94556.28
2018-02-12T10:27:00.681Z,94552.45
2018-02-12T10:29:26.702Z,94549.72
2018-02-12T10:31:52.733Z,94556.91
2018-02-12T10:34:19.137Z,94547.06
2018-02-12T10:36:45.190Z,94541.37
2018-02-12T10:39:11.246Z,94540.53
2018-02-12T10:41:37.321Z,94546.19
2018-02-12T10:44:03.544Z,94544.48
2018-02-12T10:46:29.656Z,94541.20
2018-02-12T10:48:55.694Z,94543.16
2018-02-12T10:51:21.841Z,94538.94
2018-02-12T10:53:47.988Z,94538.54
2018-02-12T10:56:16.260Z,94541.88
2018-02-12T11:01:27.593Z,94539.56
2018-02-12T11:03:53.815Z,94537.86
2018-02-12T11:06:19.886Z,94540.33
2018-02-12T11:08:45.986Z,94532.40
2018-02-12T11:11:19.780Z,94538.36
2018-02-12T11:13:45.944Z,94533.39
2018-02-12T11:16:13.109Z,94535.96
2018-02-12T11:18:40.251Z,94526.51
2018-02-12T11:21:06.391Z,94530.11
2018-02-12T11:23:34.376Z,94526.42
2018-02-12T11:26:00.733Z,94522.27
2018-02-12T11:28:26.739Z,94529.94
2018-02-12T11:30:53.759Z,94526.06
2018-02-12T11:33:23.606Z,94522.47
2018-02-12T11:35:49.746Z,94520.23
2018-02-12T11:38:15.836Z,94522.31
2018-02-12T11:40:42.125Z,94519.39
2018-02-12T11:43:08.181Z,94522.31
2018-02-12T11:45:35.330Z,94515.84
2018-02-12T11:48:03.097Z,94523.75
2018-02-12T11:50:29.453Z,94523.73
2018-02-12T11:52:58.849Z,94517.17
2018-02-12T11:55:24.910Z,94519.31
2018-02-12T11:57:54.898Z,94515.84
2018-02-12T12:00:20.965Z,94515.00
2018-02-12T12:02:54.532Z,94513.48
2018-02-12T12:05:20.972Z,94510.34
2018-02-12T12:10:32.404Z,94511.81
2018-02-12T12:13:06.230Z,94509.55
2018-02-12T12:15:32.444Z,94513.42
2018-02-12T12:17:58.689Z,94507.06
2018-02-12T12:20:28.748Z,94504.38
2018-02-12T12:22:54.813Z,94504.47
2018-02-12T12:28:09.101Z,94509.99
2018-02-12T12:30:35.639Z,94511.12
2018-02-12T12:33:01.714Z,94514.23
2018-02-12T12:35:31.532Z,94514.91
2018-02-12T12:37:57.555Z,94519.39
2018-02-12T12:40:24.687Z,94511.98
2018-02-12T12:42:52.902Z,94513.13
2018-02-12T12:45:20.630Z,94514.91
2018-02-12T12:47:46.718Z,94508.34
2018-02-12T12:50:12.898Z,94506.59
2018-02-12T12:52:39.075Z,94501.52
2018-02-12T12:55:05.250Z,94494.02
2018-02-12T12:57:31.350Z,94495.11
2018-02-12T12:59:57.379Z,94494.00
2018-02-12T13:02:23.543Z,94489.83
2018-02-12T13:04:49.644Z,94490.14
2018-02-12T13:07:15.679Z,94488.89
2018-02-12T13:09:56.830Z,94494.80
2018-02-12T13:12:23.338Z,94489.42
2018-02-12T13:14:50.870Z,94488.39
2018-02-12T13:17:17.044Z,94484.91
2018-02-12T13:19:58.920Z,94496.01
2018-02-12T13:22:24.977Z,94488.53
2018-02-12T13:24:52.061Z,94496.13
2018-02-12T13:27:18.187Z,94492.97
2018-02-12T13:29:47.710Z,94494.80
2018-02-12T13:32:13.876Z,94492.13
2018-02-12T13:34:39.987Z,94498.82
2018-02-12T13:37:06.910Z,94493.86
2018-02-12T13:39:33.017Z,94497.58
2018-02-12T13:41:59.141Z,94500.69
2018-02-12T13:44:25.287Z,94503.31
2018-02-12T13:47:06.476Z,94500.70
2018-02-12T13:49:32.713Z,94499.59
2018-02-12T13:51:58.714Z,94499.88
2018-02-12T13:54:28.529Z,94497.22
2018-02-12T13:56:54.620Z,94491.13
2018-02-12T13:59:21.756Z,94496.16
2018-02-12T14:01:48.043Z,94489.14
2018-02-12T14:04:15.968Z,94496.94
2018-02-12T14:06:42.024Z,94499.89
2018-02-12T14:09:10.038Z,94501.95
2018-02-12T14:11:36.093Z,94499.89
2018-02-12T14:14:02.141Z,94497.19
2018-02-12T14:16:28.225Z,94497.77
2018-02-12T14:18:54.352Z,94500.14
2018-02-12T14:21:20.412Z,94501.16
2018-02-12T14:24:04.867Z,94508.63
2018-02-12T14:26:33.789Z,94506.78
2018-02-12T14:49:07.341Z,94537.75
2018-02-12T14:51:34.385Z,94530.38
2018-02-12T15:01:05.962Z,94536.34
2018-02-12T15:03:35.408Z,94535.30
2018-02-12T15:11:31.540Z,94526.47
2018-02-12T15:33:23.532Z,94541.24
2018-02-12T15:35:49.606Z,94544.88
2018-02-12T15:38:16.003Z,94547.08
2018-02-12T15:43:43.763Z,94549.21
2018-02-12T15:46:27.849Z,94556.30
2018-02-12T16:02:41.888Z,94566.05
2018-02-12T16:07:56.264Z,94569.02
2018-02-12T16:10:25.800Z,94566.14
2018-02-12T16:12:51.878Z,94569.09
2018-02-12T16:18:04.172Z,94581.22
2018-02-12T16:26:19.955Z,94578.73
2018-02-12T16:29:02.169Z,94577.84
2018-02-12T16:31:28.503Z,94576.80
2018-02-12T16:42:20.378Z,94578.97
2018-02-12T16:50:25.434Z,94570.59
2018-02-12T16:57:57.274Z,94588.05
2018-02-12T17:00:25.886Z,94591.81
2018-02-12T17:02:52.156Z,94575.95
2018-02-12T22:46:45.202Z,94738.12
2018-02-12T22:49:16.261Z,94735.89
2018-02-12T22:51:42.280Z,94733.79
2018-02-12T22:54:08.333Z,94724.68
2018-02-12T22:56:34.393Z,94731.80
2018-02-12T22:59:00.478Z,94730.85
2018-02-12T23:01:26.545Z,94731.80
2018-02-12T23:03:52.589Z,94725.53
2018-02-12T23:06:18.603Z,94707.06
2018-02-12T23:08:44.605Z,94722.28
2018-02-12T23:11:10.723Z,94723.05
2018-02-12T23:13:36.836Z,94726.49
2018-02-12T23:16:03.060Z,94723.42
2018-02-12T23:18:29.150Z,94726.87
2018-02-12T23:20:55.157Z,94730.64
2018-02-12T23:23:21.254Z,94731.41
2018-02-12T23:25:47.399Z,94733.83
2018-02-12T23:28:13.474Z,94727.30
2018-02-12T23:30:39.515Z,94733.91
2018-02-12T23:33:05.539Z,94716.79
2018-02-12T23:35:31.571Z,94724.52
2018-02-12T23:37:57.588Z,94724.05
2018-02-12T23:40:23.617Z,94733.12
2018-02-12T23:42:49.606Z,94731.38
2018-02-12T23:45:15.638Z,94713.89
2018-02-12T23:47:41.651Z,94731.66
2018-02-12T23:50:07.685Z,94734.77
2018-02-12T23:52:33.706Z,94733.70
2018-02-12T23:54:59.737Z,94736.82
2018-02-12T23:57:25.742Z,94735.58
2018-02-12T23:59:51.791Z,94742.52
